Time;durP1;ratioP1;P1;durP2;ratioP2;P2;SDS_P1;SDS_P2;PMS_P1;PMS_P2;Temp;Humidity;BMP_temperature;BMP_pressure;BME280_temperature;BME280_humidity;BME280_pressure;Samples;Min_cycle;Max_cycle;Signal;HPM_P1;HPM_P2
2022/11/28 00:01:58;;;;;;;84.10;50.35;;;;;;;5.12;100.00;100944.72;2801153;84;21015;-58
2022/11/28 00:06:06;;;;;;;91.20;50.52;;;;;;;5.13;100.00;100945.59;2801490;85;21078;-58
2022/11/28 00:10:09;;;;;;;89.13;54.08;;;;;;;5.06;100.00;100945.02;2784547;84;21027;-58
2022/11/28 00:14:11;;;;;;;103.17;53.55;;;;;;;5.10;100.00;100942.63;2747057;85;21675;-59
2022/11/28 00:18:13;;;;;;;86.60;52.65;;;;;;;5.11;100.00;100940.38;2761915;85;21014;-59
2022/11/28 00:22:21;;;;;;;84.37;49.88;;;;;;;5.05;100.00;100936.73;2802050;85;21280;-59
2022/11/28 00:26:27;;;;;;;82.90;52.48;;;;;;;5.04;100.00;100928.87;2801916;85;20976;-58
2022/11/28 00:30:29;;;;;;;88.05;50.23;;;;;;;5.08;100.00;100919.88;2801026;85;21038;-59
2022/11/28 00:34:35;;;;;;;101.67;51.75;;;;;;;5.05;100.00;100923.98;2775624;85;21027;-58
2022/11/28 00:38:37;;;;;;;77.85;51.48;;;;;;;5.02;100.00;100910.95;2811302;83;21007;-59
2022/11/28 00:42:38;;;;;;;85.32;50.55;;;;;;;5.05;100.00;100910.80;2823128;83;21000;-59
2022/11/28 00:46:40;;;;;;;82.12;51.00;;;;;;;5.04;100.00;100912.60;2802108;84;21007;-59
2022/11/28 00:50:50;;;;;;;91.75;50.33;;;;;;;5.09;100.00;100903.12;2801225;85;21000;-59
2022/11/28 00:54:51;;;;;;;96.57;53.10;;;;;;;5.12;100.00;100898.56;2768822;85;21007;-59
2022/11/28 00:58:52;;;;;;;86.87;52.20;;;;;;;5.14;100.00;100896.70;2749671;85;20981;-59
2022/11/28 01:02:53;;;;;;;92.67;52.13;;;;;;;5.08;100.00;100897.47;2800162;85;21074;-59
2022/11/28 01:07:08;;;;;;;79.42;49.77;;;;;;;5.09;100.00;100887.30;2802113;85;21108;-58
2022/11/28 01:11:12;;;;;;;96.80;49.77;;;;;;;5.07;100.00;100894.44;2776734;85;21066;-59
2022/11/28 01:15:13;;;;;;;86.87;48.38;;;;;;;5.03;100.00;100888.94;2801485;85;21068;-59
2022/11/28 01:19:15;;;;;;;90.07;52.50;;;;;;;4.89;100.00;100889.61;2801691;84;21256;-59
2022/11/28 01:23:18;;;;;;;82.53;50.85;;;;;;;4.94;100.00;100881.01;2826119;83;21031;-59
2022/11/28 01:28:07;;;;;;;80.28;49.85;;;;;;;4.97;100.00;100879.53;2806910;83;21094;-58
2022/11/28 01:32:08;;;;;;;83.22;48.30;;;;;;;4.92;100.00;100877.59;2803928;83;20991;-59
2022/11/28 01:36:14;;;;;;;96.00;55.70;;;;;;;4.79;100.00;100875.54;2821411;83;20999;-59
2022/11/28 01:40:18;;;;;;;93.15;50.60;;;;;;;4.90;100.00;100862.31;2800398;85;21102;-58
2022/11/28 01:44:32;;;;;;;80.40;48.90;;;;;;;4.86;100.00;100858.52;2799847;84;21094;-58
2022/11/28 01:48:40;;;;;;;98.10;49.45;;;;;;;4.88;100.00;100855.79;2797535;85;20980;-58
2022/11/28 01:52:45;;;;;;;81.15;49.27;;;;;;;4.77;100.00;100856.31;2772367;85;20980;-59
2022/11/28 01:57:17;;;;;;;84.15;47.67;;;;;;;4.80;100.00;100848.25;2802169;85;21030;-59
2022/11/28 02:01:22;;;;;;;85.53;49.55;;;;;;;4.70;100.00;100835.98;2801693;85;21078;-59
2022/11/28 02:05:32;;;;;;;79.75;48.65;;;;;;;4.64;100.00;100834.97;2800670;85;21048;-59
2022/11/28 02:09:33;;;;;;;82.37;50.45;;;;;;;4.62;100.00;100822.34;2794120;83;21051;-58
2022/11/28 02:14:13;;;;;;;77.62;50.55;;;;;;;4.62;100.00;100816.20;2824618;83;21067;-59
2022/11/28 02:18:58;;;;;;;90.50;51.25;;;;;;;4.55;100.00;100816.50;2801566;84;21000;-58
2022/11/28 02:23:29;;;;;;;81.80;49.42;;;;;;;4.60;100.00;100812.34;2770730;85;21035;-58
2022/11/28 02:27:45;;;;;;;80.50;50.00;;;;;;;4.60;100.00;100803.12;2806149;83;21042;-59
2022/11/28 02:32:11;;;;;;;88.15;49.98;;;;;;;4.58;100.00;100797.07;2799827;84;21055;-59
2022/11/28 02:36:42;;;;;;;88.05;50.40;;;;;;;4.53;100.00;100792.50;2774930;83;20983;-59
2022/11/28 02:41:27;;;;;;;84.97;49.77;;;;;;;4.41;100.00;100807.95;2801994;85;21003;-58
2022/11/28 02:46:11;;;;;;;80.12;50.98;;;;;;;4.50;100.00;100805.80;2778931;83;20972;-58
2022/11/28 02:50:31;;;;;;;89.95;51.23;;;;;;;4.47;100.00;100800.67;2795930;83;21033;-59
2022/11/28 02:54:33;;;;;;;92.02;51.10;;;;;;;4.29;100.00;100798.86;2770588;85;21037;-58
2022/11/28 02:58:36;;;;;;;83.80;48.63;;;;;;;4.37;100.00;100796.31;2776707;85;21043;-59
2022/11/28 03:02:37;;;;;;;81.00;50.17;;;;;;;4.34;100.00;100792.52;2801027;85;21050;-60
2022/11/28 03:06:59;;;;;;;81.67;46.40;;;;;;;4.33;100.00;100778.95;2801732;85;21123;-59
2022/11/28 03:11:28;;;;;;;84.40;47.55;;;;;;;4.29;100.00;100772.97;2799560;83;20980;-58
2022/11/28 03:15:47;;;;;;;76.95;45.40;;;;;;;4.25;100.00;100770.09;2797968;85;21007;-59
2022/11/28 03:20:34;;;;;;;77.15;49.27;;;;;;;4.23;100.00;100764.05;2784579;85;21027;-58
2022/11/28 03:24:55;;;;;;;100.63;48.30;;;;;;;4.19;100.00;100754.59;2771063;85;21031;-59
2022/11/28 03:29:24;;;;;;;85.60;53.08;;;;;;;4.08;100.00;100762.53;2778371;85;21039;-58
2022/11/28 03:33:30;;;;;;;79.67;49.38;;;;;;;4.07;100.00;100762.62;2831258;83;21002;-58
2022/11/28 03:37:37;;;;;;;82.88;47.60;;;;;;;3.99;100.00;100759.02;2755051;85;21078;-58
2022/11/28 03:41:43;;;;;;;90.77;54.27;;;;;;;3.97;100.00;100766.14;2810149;83;21047;-59
2022/11/28 03:50:16;;;;;;;87.82;47.03;;;;;;;3.95;100.00;100760.94;2734477;85;21005;-58
2022/11/28 03:54:47;;;;;;;69.45;48.55;;;;;;;3.86;100.00;100754.32;2769056;85;20995;-59
2022/11/28 03:59:03;;;;;;;81.70;50.20;;;;;;;3.79;100.00;100743.70;2788329;82;21032;-60
2022/11/28 04:03:16;;;;;;;79.07;49.63;;;;;;;3.71;100.00;100743.17;2798085;85;21027;-59
2022/11/28 04:07:52;;;;;;;82.60;47.83;;;;;;;3.69;100.00;100746.34;2801206;84;21018;-59
2022/11/28 04:11:58;;;;;;;78.30;42.75;;;;;;;3.66;100.00;100742.54;2800679;84;21023;-60
2022/11/28 04:16:21;;;;;;;67.82;41.88;;;;;;;3.52;100.00;100740.06;2783519;83;21487;-60
2022/11/28 04:20:34;;;;;;;78.70;45.83;;;;;;;3.42;100.00;100740.10;2811731;84;21071;-58
2022/11/28 04:24:44;;;;;;;96.78;57.15;;;;;;;3.31;100.00;100739.72;2813487;84;21077;-59
2022/11/28 04:29:07;;;;;;;84.00;53.15;;;;;;;3.40;100.00;100740.16;2814938;83;21028;-59
2022/11/28 04:33:12;;;;;;;81.30;49.42;;;;;;;3.42;100.00;100742.25;2805373;83;21058;-59
2022/11/28 04:37:26;;;;;;;78.35;47.78;;;;;;;3.42;100.00;100740.10;2768347;86;21015;-59
2022/11/28 04:41:41;;;;;;;68.85;44.85;;;;;;;3.46;100.00;100735.57;2793188;84;20989;-59
2022/11/28 04:45:48;;;;;;;70.65;42.35;;;;;;;3.43;100.00;100732.60;2814980;84;21019;-59
2022/11/28 04:49:57;;;;;;;71.70;45.48;;;;;;;3.35;100.00;100735.58;2814882;84;21082;-59
2022/11/28 04:54:14;;;;;;;76.80;43.33;;;;;;;3.36;100.00;100732.50;2814483;83;21023;-59
2022/11/28 04:58:27;;;;;;;71.80;40.17;;;;;;;3.33;100.00;100737.87;2815155;84;21040;-59
2022/11/28 05:02:29;;;;;;;82.33;45.73;;;;;;;3.28;100.00;100731.52;2815163;84;20995;-59
2022/11/28 05:06:35;;;;;;;80.28;47.95;;;;;;;3.23;100.00;100733.47;2814878;84;21074;-59
2022/11/28 05:10:36;;;;;;;67.20;39.63;;;;;;;3.26;100.00;100725.00;2815329;84;21014;-59
2022/11/28 05:14:38;;;;;;;71.50;41.53;;;;;;;3.31;100.00;100714.73;2768304;84;21023;-58
2022/11/28 05:18:40;;;;;;;66.57;36.77;;;;;;;3.36;100.00;100718.03;2760114;86;21027;-59
2022/11/28 05:22:41;;;;;;;64.85;40.95;;;;;;;3.32;100.00;100715.99;2801744;84;21052;-59
2022/11/28 05:26:43;;;;;;;63.48;37.65;;;;;;;3.37;100.00;100715.80;2801088;84;21058;-59
2022/11/28 05:30:44;;;;;;;80.40;34.95;;;;;;;3.28;100.00;100714.43;2768442;84;20983;-59
2022/11/28 05:34:45;;;;;;;52.78;32.95;;;;;;;3.27;100.00;100713.56;2781004;85;21030;-59
2022/11/28 05:38:47;;;;;;;59.20;37.55;;;;;;;3.20;100.00;100712.13;2766046;85;20979;-59
2022/11/28 05:42:49;;;;;;;54.45;31.85;;;;;;;3.12;100.00;100712.92;2793168;84;20987;-59
2022/11/28 05:46:50;;;;;;;50.58;32.53;;;;;;;3.05;100.00;100711.48;2667229;88;21085;-60
2022/11/28 05:50:52;;;;;;;57.00;34.10;;;;;;;3.02;100.00;100703.27;2743390;87;21090;-60
2022/11/28 05:54:53;;;;;;;55.58;34.00;;;;;;;3.02;100.00;100715.57;2801933;85;21020;-59
2022/11/28 05:58:54;;;;;;;50.67;31.68;;;;;;;2.88;100.00;100702.55;2737220;86;21148;-60
2022/11/28 06:02:56;;;;;;;56.80;33.98;;;;;;;2.81;100.00;100705.06;2780058;85;21023;-60
2022/11/28 06:07:07;;;;;;;44.93;25.57;;;;;;;2.83;100.00;100704.53;2802123;85;20994;-60
2022/11/28 06:11:09;;;;;;;47.73;28.73;;;;;;;2.79;100.00;100693.77;2802027;85;20960;-60
2022/11/28 06:15:11;;;;;;;50.00;29.32;;;;;;;2.81;100.00;100687.98;2802343;85;21016;-59
2022/11/28 06:19:12;;;;;;;56.70;34.38;;;;;;;2.77;100.00;100692.50;2807042;84;21260;-60
2022/11/28 06:23:14;;;;;;;49.42;32.10;;;;;;;2.78;100.00;100690.75;2774118;84;21054;-59
2022/11/28 06:27:16;;;;;;;49.55;28.38;;;;;;;2.81;100.00;100685.36;2765301;86;21073;-60
2022/11/28 06:31:21;;;;;;;36.68;25.10;;;;;;;2.82;100.00;100688.37;2726406;86;21026;-59
2022/11/28 06:36:13;;;;;;;38.90;24.70;;;;;;;2.76;100.00;100689.97;2794257;84;21062;-60
2022/11/28 06:40:15;;;;;;;37.63;26.37;;;;;;;2.74;100.00;100689.15;2766751;86;21093;-59
2022/11/28 06:44:18;;;;;;;38.40;25.60;;;;;;;2.65;100.00;100689.95;2768144;85;21021;-60
2022/11/28 06:48:21;;;;;;;30.10;20.97;;;;;;;2.65;100.00;100695.20;2762199;86;21083;-60
2022/11/28 06:52:22;;;;;;;41.50;25.15;;;;;;;2.67;100.00;100686.79;2767898;84;21052;-59
2022/11/28 06:56:24;;;;;;;40.85;27.58;;;;;;;2.66;100.00;100695.59;2767911;85;21002;-59
2022/11/28 07:00:26;;;;;;;39.67;24.65;;;;;;;2.57;100.00;100689.43;2767995;86;21054;-60
2022/11/28 07:04:28;;;;;;;40.78;22.85;;;;;;;2.62;100.00;100689.21;2709666;86;21038;-60
2022/11/28 07:08:45;;;;;;;39.27;23.70;;;;;;;2.59;100.00;100688.91;2790780;84;21010;-60
2022/11/28 07:12:47;;;;;;;37.48;21.48;;;;;;;2.57;100.00;100685.48;2768085;84;20971;-59
2022/11/28 07:16:49;;;;;;;40.35;23.15;;;;;;;2.50;100.00;100681.39;2744578;85;21103;-60
2022/11/28 07:20:50;;;;;;;43.68;24.65;;;;;;;2.52;100.00;100672.98;2753383;85;20994;-60
2022/11/28 07:24:52;;;;;;;39.00;23.70;;;;;;;2.52;100.00;100674.30;2744000;84;21005;-60
2022/11/28 07:28:55;;;;;;;36.23;20.62;;;;;;;2.46;100.00;100681.13;2715275;87;21005;-60
2022/11/28 07:32:56;;;;;;;38.70;23.15;;;;;;;2.51;100.00;100676.53;2732509;87;21347;-60
2022/11/28 07:36:57;;;;;;;42.90;25.20;;;;;;;2.54;100.00;100668.52;2732575;87;21044;-60
2022/11/28 07:41:06;;;;;;;40.35;27.45;;;;;;;2.66;100.00;100669.33;2784321;85;21035;-60
2022/11/28 07:45:09;;;;;;;40.48;25.00;;;;;;;2.74;100.00;100661.12;2822703;83;21023;-59
2022/11/28 07:49:13;;;;;;;44.70;27.93;;;;;;;2.83;100.00;100665.13;2805055;83;21023;-60
2022/11/28 07:53:14;;;;;;;42.23;26.35;;;;;;;2.79;100.00;100658.30;2802012;83;21042;-60
2022/11/28 07:57:16;;;;;;;44.13;28.10;;;;;;;2.81;100.00;100652.52;2753518;86;20999;-60
2022/11/28 08:01:24;;;;;;;41.00;24.63;;;;;;;2.81;100.00;100657.77;2771119;83;21066;-59
2022/11/28 08:05:25;;;;;;;45.63;27.35;;;;;;;2.78;100.00;100652.66;2843609;83;20988;-59
2022/11/28 08:09:27;;;;;;;37.65;24.40;;;;;;;2.78;100.00;100651.34;2792706;84;21015;-60
2022/11/28 08:13:29;;;;;;;44.70;27.93;;;;;;;2.81;100.00;100642.00;2801872;84;20995;-60
2022/11/28 08:17:33;;;;;;;41.85;27.13;;;;;;;2.81;100.00;100640.21;2801590;85;29709;-59
2022/11/28 08:21:36;;;;;;;41.10;24.65;;;;;;;2.81;100.00;100642.00;2812573;84;21075;-60
2022/11/28 08:25:37;;;;;;;42.33;25.90;;;;;;;2.80;100.00;100640.30;2817617;83;21030;-59
2022/11/28 08:29:38;;;;;;;45.78;29.18;;;;;;;2.86;100.00;100641.33;2794613;84;20976;-60
2022/11/28 08:33:40;;;;;;;46.83;28.85;;;;;;;3.02;100.00;100641.97;2814989;84;21043;-60
2022/11/28 08:37:42;;;;;;;50.67;28.30;;;;;;;3.01;100.00;100641.11;2815404;84;21023;-59
2022/11/28 08:41:44;;;;;;;51.10;31.20;;;;;;;3.10;100.00;100628.88;2793801;84;21054;-60
2022/11/28 08:45:49;;;;;;;55.60;31.52;;;;;;;3.19;100.00;100628.93;2801174;84;21074;-60
2022/11/28 08:49:50;;;;;;;46.00;31.67;;;;;;;3.21;100.00;100609.99;2815548;84;21014;-59
2022/11/28 08:53:52;;;;;;;46.02;26.68;;;;;;;3.33;100.00;100612.95;2785957;84;20960;-60
2022/11/28 08:57:54;;;;;;;46.88;28.40;;;;;;;3.40;100.00;100605.20;2838424;83;21106;-59
2022/11/28 09:01:55;;;;;;;54.00;32.08;;;;;;;3.53;100.00;100591.00;2814501;83;21003;-59
2022/11/28 09:06:05;;;;;;;43.23;26.40;;;;;;;3.69;100.00;100587.16;2815208;83;21011;-59
2022/11/28 09:10:06;;;;;;;41.55;27.30;;;;;;;3.80;100.00;100575.66;2766651;86;21124;-59
2022/11/28 09:14:13;;;;;;;41.33;24.80;;;;;;;3.89;100.00;100573.05;2768392;86;20989;-60
2022/11/28 09:18:16;;;;;;;53.10;29.55;;;;;;;4.06;100.00;100573.52;2768420;85;21041;-60
2022/11/28 09:22:17;;;;;;;50.03;30.12;;;;;;;4.27;100.00;100570.27;2744587;85;21029;-59
2022/11/28 09:26:21;;;;;;;46.05;27.58;;;;;;;4.29;100.00;100567.09;2721200;86;21068;-60
2022/11/28 09:30:24;;;;;;;43.68;26.60;;;;;;;4.29;100.00;100571.49;2769918;85;21123;-59
2022/11/28 09:34:26;;;;;;;50.63;31.37;;;;;;;4.38;100.00;100572.35;2729608;85;21075;-59
2022/11/28 09:38:27;;;;;;;43.55;29.77;;;;;;;4.46;100.00;100560.56;2768500;86;21030;-60
2022/11/28 09:42:42;;;;;;;47.98;28.60;;;;;;;4.62;100.00;100566.73;2768835;85;21051;-60
2022/11/28 09:46:45;;;;;;;52.33;29.48;;;;;;;4.74;100.00;100559.13;2768623;86;21096;-60
2022/11/28 09:50:50;;;;;;;49.35;32.48;;;;;;;4.89;100.00;100547.73;2769001;86;21035;-59
2022/11/28 09:55:17;;;;;;;59.63;31.55;;;;;;;5.02;100.00;100543.13;2768606;86;21033;-59
2022/11/28 09:59:28;;;;;;;59.30;34.75;;;;;;;5.12;100.00;100541.70;2753186;86;21032;-59
2022/11/28 10:03:40;;;;;;;43.52;26.77;;;;;;;5.25;100.00;100533.48;2770424;84;21008;-60
2022/11/28 10:08:02;;;;;;;54.25;32.42;;;;;;;5.31;100.00;100540.69;2685969;86;20993;-59
2022/11/28 10:12:28;;;;;;;50.75;33.00;;;;;;;5.40;100.00;100530.92;2663760;87;20997;-59
2022/11/28 10:17:12;;;;;;;47.25;31.80;;;;;;;5.49;100.00;100521.16;2478742;95;21053;-60
2022/11/28 10:21:25;;;;;;;48.80;33.58;;;;;;;5.56;100.00;100518.57;2514971;93;21173;-60
2022/11/28 10:25:52;;;;;;;54.25;37.17;;;;;;;5.67;100.00;100511.81;2447155;96;21154;-59
2022/11/28 10:30:11;;;;;;;48.35;28.38;;;;;;;5.75;100.00;100507.41;2506930;93;21124;-60
2022/11/28 10:34:32;;;;;;;46.58;32.03;;;;;;;5.79;100.00;100499.23;2485945;93;21104;-60
2022/11/28 10:38:35;;;;;;;44.85;30.85;;;;;;;5.89;100.00;100501.31;2502742;93;21103;-60
2022/11/28 10:43:32;;;;;;;49.27;33.20;;;;;;;5.93;100.00;100496.26;2521319;93;21109;-60
2022/11/28 10:48:14;;;;;;;37.88;27.98;;;;;;;5.97;100.00;100488.53;2546537;93;21051;-57
2022/11/28 10:52:29;;;;;;;47.78;30.95;;;;;;;5.98;99.99;100477.02;2628164;87;21042;-57
2022/11/28 10:56:45;;;;;;;44.40;32.38;;;;;;;5.93;100.00;100472.49;2725998;86;21484;-57
2022/11/28 11:00:52;;;;;;;52.87;30.00;;;;;;;5.94;100.00;100472.88;2720603;87;21007;-57
2022/11/28 11:04:56;;;;;;;44.77;27.58;;;;;;;6.00;100.00;100469.86;2701068;86;21020;-57
2022/11/28 11:08:57;;;;;;;54.15;35.00;;;;;;;6.06;100.00;100469.51;2701369;88;21374;-57
2022/11/28 11:12:58;;;;;;;56.20;36.88;;;;;;;6.13;100.00;100468.22;2715479;87;20995;-57
2022/11/28 11:17:01;;;;;;;55.35;28.83;;;;;;;6.16;99.84;100461.88;2714954;86;21023;-56
2022/11/28 11:21:25;;;;;;;44.90;31.05;;;;;;;6.10;99.97;100452.56;2763032;86;21032;-57
2022/11/28 11:25:30;;;;;;;45.35;30.85;;;;;;;6.20;99.12;100448.89;2769120;86;21139;-57
2022/11/28 11:29:36;;;;;;;50.25;31.55;;;;;;;6.17;98.24;100459.61;2771897;86;21000;-57
2022/11/28 11:33:38;;;;;;;40.73;27.77;;;;;;;6.23;98.52;100457.94;2772146;86;21024;-57
2022/11/28 11:37:39;;;;;;;41.13;28.32;;;;;;;6.27;98.00;100449.34;2778251;84;21004;-57
2022/11/28 11:41:44;;;;;;;38.67;28.23;;;;;;;6.37;99.18;100443.87;2778374;84;21012;-57
2022/11/28 11:45:48;;;;;;;89.92;51.68;;;;;;;6.43;97.86;100447.45;2772153;86;21012;-57
2022/11/28 11:49:49;;;;;;;54.40;31.75;;;;;;;6.42;98.00;100446.24;2729963;87;21131;-57
2022/11/28 11:59:01;;;;;;;67.25;36.03;;;;;;;6.30;97.73;100441.25;2737970;86;21001;-57
2022/11/28 12:07:41;;;;;;;49.95;31.73;;;;;;;6.41;97.36;100439.27;2661550;89;21131;-57
2022/11/28 12:11:48;;;;;;;51.30;32.38;;;;;;;6.37;97.21;100437.27;2679599;87;21014;-57
2022/11/28 12:16:32;;;;;;;48.17;27.52;;;;;;;6.38;99.12;100428.40;2704266;88;21006;-57
2022/11/28 12:21:13;;;;;;;48.00;32.95;;;;;;;6.33;99.36;100437.09;2661916;89;21065;-57
2022/11/28 12:25:29;;;;;;;47.62;31.33;;;;;;;6.34;99.79;100429.54;2722161;86;21059;-57
2022/11/28 12:35:03;;;;;;;41.33;29.35;;;;;;;6.31;96.70;100419.17;2704801;88;20998;-59
2022/11/28 12:39:18;;;;;;;42.60;25.80;;;;;;;6.41;97.93;100421.59;2682308;88;21507;-59
2022/11/28 12:44:02;;;;;;;40.50;27.67;;;;;;;6.37;97.59;100417.45;2687503;86;21258;-59
2022/11/28 12:48:42;;;;;;;35.05;25.23;;;;;;;6.40;98.12;100408.02;2772098;85;21079;-59
2022/11/28 12:53:16;;;;;;;40.78;26.27;;;;;;;6.46;97.96;100404.14;2771546;84;21024;-59
2022/11/28 12:57:45;;;;;;;33.10;23.90;;;;;;;6.42;97.28;100398.19;2770277;85;21028;-59
2022/11/28 13:02:19;;;;;;;48.65;26.57;;;;;;;6.43;97.17;100397.24;2803974;84;20989;-59
2022/11/28 13:06:31;;;;;;;38.20;23.50;;;;;;;6.52;96.90;100400.27;2791409;84;21008;-59
2022/11/28 13:10:56;;;;;;;41.80;26.82;;;;;;;6.54;97.12;100385.16;2770734;82;21016;-59
2022/11/28 13:15:03;;;;;;;38.15;25.35;;;;;;;6.54;96.79;100392.60;2772186;84;21072;-58
2022/11/28 13:19:45;;;;;;;43.10;27.67;;;;;;;6.60;97.28;100384.77;2771962;86;21000;-58
2022/11/28 13:24:26;;;;;;;34.27;24.32;;;;;;;6.60;97.00;100388.73;2746082;86;21024;-59
2022/11/28 13:28:41;;;;;;;39.98;26.95;;;;;;;6.58;97.68;100386.66;2683921;87;21034;-59
2022/11/28 13:33:12;;;;;;;38.25;27.52;;;;;;;6.61;97.60;100378.53;2687183;87;20989;-59
2022/11/28 13:37:57;;;;;;;41.13;27.60;;;;;;;6.55;98.11;100378.93;2686096;88;20965;-59
2022/11/28 13:42:41;;;;;;;39.10;26.77;;;;;;;6.55;98.45;100374.47;2717437;87;21141;-58
2022/11/28 13:46:44;;;;;;;39.63;23.73;;;;;;;6.53;99.05;100387.43;2705596;86;20954;-59
2022/11/28 13:51:21;;;;;;;40.98;23.85;;;;;;;6.47;99.15;100383.37;2694043;86;21049;-59
2022/11/28 13:55:47;;;;;;;39.42;26.25;;;;;;;6.51;99.32;100374.80;2683102;87;21133;-55
2022/11/28 14:00:39;;;;;;;37.08;21.15;;;;;;;6.67;98.96;100388.70;2700833;87;21107;-57
2022/11/28 14:04:44;;;;;;;37.80;24.20;;;;;;;6.66;98.07;100385.68;2592929;89;21051;-58
2022/11/28 14:08:50;;;;;;;29.12;21.50;;;;;;;6.69;97.81;100386.84;2622612;86;21024;-57
2022/11/28 14:13:11;;;;;;;;;;;;;;;6.73;97.03;100388.78;2652242;88;20996;-59
2022/11/28 14:17:33;;;;;;;27.40;19.85;;;;;;;6.68;96.30;100381.17;2597636;91;20089;-56
2022/11/28 14:22:18;;;;;;;34.48;23.47;;;;;;;6.60;97.21;100382.12;2619519;89;21044;-55
2022/11/28 14:26:33;;;;;;;36.90;22.13;;;;;;;6.56;96.93;100377.49;2640702;88;21066;-57
2022/11/28 14:30:39;;;;;;;37.23;24.57;;;;;;;6.52;97.27;100387.05;2648978;88;21008;-59
2022/11/28 14:34:48;;;;;;;34.40;24.70;;;;;;;6.48;97.24;100392.14;2643495;87;21094;-57
2022/11/28 14:39:15;;;;;;;36.68;24.77;;;;;;;6.43;97.59;100389.80;2665041;85;21043;-56
2022/11/28 14:43:33;;;;;;;36.30;22.30;;;;;;;6.32;97.95;100394.91;2796495;85;21015;-56
2022/11/28 14:47:41;;;;;;;32.70;19.60;;;;;;;6.32;98.30;100386.98;2770604;85;21070;-58
2022/11/28 14:51:52;;;;;;;35.83;22.48;;;;;;;6.27;98.50;100388.58;2691169;87;21011;-56
2022/11/28 14:56:33;;;;;;;35.52;21.93;;;;;;;6.19;98.91;100388.22;2758102;86;21032;-56
2022/11/28 15:00:48;;;;;;;34.75;20.70;;;;;;;6.08;99.31;100387.06;2777041;86;21139;-58
2022/11/28 15:05:25;;;;;;;34.30;23.40;;;;;;;5.95;99.76;100396.67;2777430;84;21357;-57
2022/11/28 15:09:53;;;;;;;30.72;21.85;;;;;;;5.89;100.00;100397.02;2714624;85;21004;-57
2022/11/28 15:14:18;;;;;;;32.17;23.10;;;;;;;5.80;100.00;100407.21;2748919;85;21019;-57
2022/11/28 15:18:24;;;;;;;43.77;26.73;;;;;;;5.75;100.00;100404.00;2730506;86;21093;-57
2022/11/28 15:22:33;;;;;;;40.63;22.50;;;;;;;5.70;100.00;100404.76;2638162;89;21106;-57
2022/11/28 15:27:24;;;;;;;35.85;23.22;;;;;;;5.68;100.00;100409.25;2669522;87;21127;-58
2022/11/28 15:31:30;;;;;;;33.40;23.75;;;;;;;5.69;100.00;100406.98;2696643;87;20966;-56
2022/11/28 15:35:31;;;;;;;41.13;24.30;;;;;;;5.65;99.72;100411.62;2678517;88;21095;-57
2022/11/28 16:02:25;;;;;;;34.65;23.20;;;;;;;5.79;97.74;100401.55;2868210;80;22800;-89
2022/11/28 16:06:27;;;;;;;41.00;27.15;;;;;;;5.64;97.91;100406.42;2864140;81;21138;-88
2022/11/28 16:10:36;;;;;;;35.95;22.30;;;;;;;5.49;98.79;100406.37;2876989;81;21012;-89
2022/11/28 16:14:43;;;;;;;34.67;22.93;;;;;;;5.34;99.61;100405.49;2869171;82;21717;-88
2022/11/28 16:18:59;;;;;;;36.63;23.07;;;;;;;5.29;100.00;100405.75;2901438;80;21064;-91
2022/11/28 16:23:22;;;;;;;30.40;21.70;;;;;;;5.22;100.00;100413.65;2893657;79;21002;-88
2022/11/28 16:27:36;;;;;;;31.73;21.07;;;;;;;5.18;100.00;100410.81;2818761;81;21926;-88
2022/11/28 16:31:38;;;;;;;31.23;21.25;;;;;;;5.19;100.00;100409.87;2861246;80;21139;-86
2022/11/28 16:35:40;;;;;;;28.92;20.23;;;;;;;5.20;100.00;100408.94;2849841;83;21780;-89
2022/11/28 16:39:41;;;;;;;36.13;22.80;;;;;;;5.13;100.00;100414.19;2902955;80;21006;-88
2022/11/28 16:43:55;;;;;;;26.40;18.52;;;;;;;5.03;100.00;100416.50;2807474;81;21081;-89
2022/11/28 16:48:11;;;;;;;38.33;23.62;;;;;;;4.97;100.00;100415.51;2927544;80;21104;-88
2022/11/28 16:52:27;;;;;;;37.85;24.27;;;;;;;4.88;100.00;100412.92;2853590;80;21650;-91
2022/11/28 16:56:34;;;;;;;42.27;28.23;;;;;;;4.81;100.00;100407.63;2902528;80;21180;-91
2022/11/28 17:00:39;;;;;;;44.90;28.85;;;;;;;4.78;100.00;100405.16;2844982;82;21065;-88
2022/11/28 17:04:40;;;;;;;33.23;26.05;;;;;;;4.79;100.00;100404.22;2848275;81;21014;-90
2022/11/28 17:08:41;;;;;;;33.50;23.90;;;;;;;4.82;100.00;100404.05;2796251;82;21111;-90
2022/11/28 17:12:42;;;;;;;41.45;28.95;;;;;;;4.76;100.00;100401.77;2870029;81;21398;-89
2022/11/28 17:16:44;;;;;;;44.83;25.62;;;;;;;4.77;100.00;100400.83;2801623;83;21113;-91
2022/11/28 17:20:45;;;;;;;39.35;26.07;;;;;;;4.88;100.00;100404.18;2786909;82;21034;-91
2022/11/28 17:24:49;;;;;;;37.60;25.32;;;;;;;4.87;100.00;100407.27;2798908;83;21090;-90
2022/11/28 17:28:50;;;;;;;31.07;22.17;;;;;;;4.86;100.00;100407.75;2887672;80;21613;-91
2022/11/28 17:32:51;;;;;;;36.58;21.40;;;;;;;4.79;100.00;100408.17;2884318;80;21037;-91
2022/11/28 17:36:52;;;;;;;41.65;23.67;;;;;;;4.71;100.00;100402.84;2832225;82;21095;-91
2022/11/28 17:40:53;;;;;;;38.85;25.40;;;;;;;4.65;100.00;100405.83;2883881;80;21002;-90
2022/11/28 17:44:54;;;;;;;43.55;24.85;;;;;;;4.63;100.00;100398.48;2827012;82;21052;-90
2022/11/28 17:48:57;;;;;;;32.80;21.55;;;;;;;4.63;100.00;100405.55;2892770;80;21030;-89
2022/11/28 17:52:58;;;;;;;34.05;24.27;;;;;;;4.60;100.00;100401.73;2832347;82;21064;-90
2022/11/28 17:56:59;;;;;;;32.28;23.22;;;;;;;4.59;100.00;100399.59;2858809;81;21561;-90
2022/11/28 18:01:01;;;;;;;41.35;25.68;;;;;;;4.50;100.00;100405.34;2832841;82;21011;-90
2022/11/28 18:05:02;;;;;;;43.78;30.65;;;;;;;4.46;100.00;100400.73;2832660;82;21610;-89
2022/11/28 18:09:05;;;;;;;46.28;27.17;;;;;;;4.47;100.00;100403.75;2808141;82;21607;-88
2022/11/28 18:13:08;;;;;;;47.40;31.42;;;;;;;4.50;100.00;100404.03;2841165;82;21032;-89
2022/11/28 18:17:10;;;;;;;38.55;27.40;;;;;;;4.54;100.00;100395.05;2831045;80;21021;-88
2022/11/28 18:21:12;;;;;;;43.78;28.23;;;;;;;4.60;100.00;100388.56;2892309;80;21601;-88
2022/11/28 18:25:14;;;;;;;53.08;33.73;;;;;;;4.60;100.00;100393.39;2795412;82;21053;-88
2022/11/28 18:29:15;;;;;;;37.75;24.35;;;;;;;4.58;100.00;100384.72;2860421;80;21054;-87
2022/11/28 18:33:16;;;;;;;40.45;27.05;;;;;;;4.55;100.00;100390.16;2838358;83;21060;-86
2022/11/28 18:37:17;;;;;;;34.83;24.30;;;;;;;4.51;100.00;100384.66;2876079;80;21069;-85
2022/11/28 18:41:18;;;;;;;48.65;31.95;;;;;;;4.52;100.00;100385.03;2769767;82;21056;-86
2022/11/28 18:45:19;;;;;;;52.58;33.13;;;;;;;4.55;100.00;100387.53;2869491;80;21026;-86
2022/11/28 18:49:20;;;;;;;38.00;21.75;;;;;;;4.55;100.00;100383.58;2790230;82;21049;-88
2022/11/28 18:53:22;;;;;;;56.63;36.05;;;;;;;4.49;100.00;100390.48;2832069;82;21089;-90
2022/11/28 18:57:28;;;;;;;40.78;22.30;;;;;;;4.50;100.00;100399.63;2813671;81;21604;-90
2022/11/28 19:01:30;;;;;;;49.95;27.15;;;;;;;4.40;100.00;100392.69;2850092;81;21484;-92
2022/11/28 19:05:31;;;;;;;38.00;27.93;;;;;;;4.43;100.00;100389.89;2851950;80;21053;-90
2022/11/28 19:09:32;;;;;;;50.92;25.08;;;;;;;4.43;100.00;100389.89;2798055;83;21149;-88
2022/11/28 19:13:37;;;;;;;45.48;27.00;;;;;;;4.39;100.00;100394.95;2881772;80;21104;-90
2022/11/28 19:17:38;;;;;;;47.25;29.00;;;;;;;4.39;100.00;100389.67;2807548;82;21123;-90
2022/11/28 19:21:39;;;;;;;51.30;30.70;;;;;;;4.42;100.00;100390.82;2878725;80;21069;-91
2022/11/28 19:25:41;;;;;;;66.47;37.28;;;;;;;4.44;100.00;100381.53;2848516;80;21084;-91
2022/11/28 19:29:42;;;;;;;67.67;41.55;;;;;;;4.50;100.00;100381.64;2888695;80;21735;-91
2022/11/28 19:33:43;;;;;;;59.30;32.53;;;;;;;4.56;100.00;100383.47;2828888;82;21611;-91
2022/11/28 19:37:44;;;;;;;45.25;27.82;;;;;;;4.58;100.00;100380.77;2881813;80;21049;-91
2022/11/28 19:41:46;;;;;;;49.40;29.25;;;;;;;4.62;100.00;100381.42;2826056;82;21056;-91
2022/11/28 19:45:55;;;;;;;31.87;22.87;;;;;;;4.55;100.00;100379.14;2803169;82;21061;-90